Terminal Aerodrome Forecast
Issued by NWS

Home | Current Version | Previous Version | Text Only | Print | Product List | Glossary On
Versions: 1 2 3 4 5 6 7 8 9 10 11 12 13 14 15 16 17 18 19 20 21 22 23 24 25 26 27 28 29 30 31 32 33 34 35 36 37 38 39 40 41 42 43 44
000
FTUS45 KBOU 201133
TAFAPA
TAF
KAPA 201133Z 2012/2112 16006KT P6SM SCT120 SCT220
     FM201400 23010KT P6SM SCT120 BKN220
     FM202000 14010KT P6SM SCT120 BKN200
     FM210100 28010G18KT P6SM SCT100 BKN180
     FM210500 25007KT P6SM SCT080 BKN140=

USA.gov is the U.S. government's official web portal to all federal, state and local government web resources and services.